Time;durP1;ratioP1;P1;durP2;ratioP2;P2;SDS_P1;SDS_P2;PMS_P1;PMS_P2;Temp;Humidity;BMP_temperature;BMP_pressure;BME280_temperature;BME280_humidity;BME280_pressure;Samples;Min_cycle;Max_cycle;Signal;HPM_P1;HPM_P2
2021/09/01 00:00:54;;;;;;;;;25.25;21.50;;;;;18.70;61.37;102486.84;4922465;28;45626;-78
2021/09/01 00:03:20;;;;;;;;;27.25;22.75;;;;;18.70;61.25;102489.50;4924608;28;45416;-78
2021/09/01 00:05:45;;;;;;;;;20.50;17.50;;;;;18.67;61.17;102478.06;4924074;28;45225;-78
2021/09/01 00:08:11;;;;;;;;;23.25;21.25;;;;;18.67;61.80;102495.81;4924065;28;45172;-78
2021/09/01 00:10:36;;;;;;;;;26.75;23.50;;;;;18.63;61.79;102489.75;4924231;28;45334;-78
2021/09/01 00:13:02;;;;;;;;;25.00;22.25;;;;;18.60;62.04;102497.00;4924206;28;45581;-77
2021/09/01 00:15:28;;;;;;;;;22.25;21.25;;;;;18.60;61.71;102497.88;4922739;28;45800;-78
2021/09/01 00:17:53;;;;;;;;;24.50;21.50;;;;;18.56;62.14;102498.94;4923812;28;45362;-79
2021/09/01 00:20:19;;;;;;;;;30.50;25.00;;;;;18.50;61.85;102507.13;4929680;28;45326;-79
2021/09/01 00:22:44;;;;;;;;;27.75;22.50;;;;;18.46;62.32;102500.19;4923549;28;45564;-79
2021/09/01 00:25:10;;;;;;;;;24.25;20.00;;;;;18.39;62.64;102497.78;4923243;28;45498;-79
2021/09/01 00:27:36;;;;;;;;;21.50;21.25;;;;;18.38;62.42;102500.50;4922009;28;45494;-81
2021/09/01 00:30:03;;;;;;;;;24.25;21.00;;;;;18.41;62.85;102505.72;4924170;28;45347;-81
2021/09/01 00:32:28;;;;;;;;;19.50;19.50;;;;;18.33;62.45;102506.00;4924292;28;46731;-81
2021/09/01 00:34:53;;;;;;;;;25.75;22.00;;;;;18.33;62.69;102503.34;4920855;28;45811;-81
2021/09/01 00:37:19;;;;;;;;;24.25;19.25;;;;;18.26;63.68;102494.72;4907477;28;45499;-82
2021/09/01 00:39:44;;;;;;;;;23.00;17.75;;;;;18.25;63.08;102497.44;4923492;28;45499;-82
2021/09/01 00:42:10;;;;;;;;;22.25;20.50;;;;;18.21;63.04;102489.56;4923563;28;45592;-82
2021/09/01 00:44:36;;;;;;;;;27.25;22.50;;;;;18.25;63.52;102500.09;4922949;28;45259;-82
2021/09/01 00:47:03;;;;;;;;;21.25;18.25;;;;;18.22;62.98;102491.28;4924121;28;45283;-83
2021/09/01 00:49:29;;;;;;;;;24.25;22.50;;;;;18.21;63.22;102492.22;4924809;28;45448;-83
2021/09/01 00:51:56;;;;;;;;;23.00;20.50;;;;;18.20;63.41;102495.81;4930854;28;45521;-83
2021/09/01 00:54:24;;;;;;;;;27.75;27.00;;;;;18.15;63.55;102494.22;4906252;28;45426;-81
2021/09/01 00:56:58;;;;;;;;;6.75;6.75;;;;;18.15;63.84;102500.41;4921442;28;45372;-85
2021/09/01 00:59:30;;;;;;;;;27.25;22.25;;;;;18.11;63.61;102498.78;4917001;28;45335;-83
2021/09/01 01:01:56;;;;;;;;;24.75;22.75;;;;;18.08;63.44;102482.94;4917740;28;46281;-84
2021/09/01 01:04:24;;;;;;;;;24.00;21.75;;;;;18.09;64.10;102495.31;4923032;28;45743;-83
2021/09/01 01:06:50;;;;;;;;;20.25;17.75;;;;;18.05;63.73;102497.22;4923418;28;45280;-83
2021/09/01 01:09:15;;;;;;;;;20.25;19.50;;;;;17.97;64.87;102489.53;4923906;28;45313;-84
2021/09/01 01:12:07;;;;;;;;;30.50;21.75;;;;;18.03;64.21;102498.19;4921923;28;46174;-84
2021/09/01 01:14:36;;;;;;;;;24.00;23.00;;;;;17.97;63.89;102500.19;4923179;28;45315;-84
2021/09/01 01:17:04;;;;;;;;;31.75;22.50;;;;;17.90;64.38;102492.47;4920653;28;45426;-86
2021/09/01 01:19:29;;;;;;;;;23.25;20.25;;;;;17.85;64.23;102489.97;4921965;28;45373;-87
2021/09/01 01:21:57;;;;;;;;;2.00;2.00;;;;;17.85;64.39;102493.47;4923343;28;45305;-87
2021/09/01 01:24:22;;;;;;;;;28.75;23.75;;;;;17.84;64.70;102490.88;4923012;28;45396;-85
2021/09/01 01:26:48;;;;;;;;;26.25;21.00;;;;;17.82;64.33;102487.41;4922695;28;45244;-85
2021/09/01 01:29:13;;;;;;;;;29.50;22.50;;;;;17.80;64.73;102478.63;4922583;28;45444;-85
2021/09/01 01:31:39;;;;;;;;;24.75;23.25;;;;;17.82;64.96;102496.28;4921212;28;48149;-87
2021/09/01 01:34:12;;;;;;;;;25.50;24.00;;;;;17.80;64.81;102484.84;4923079;28;45283;-86
2021/09/01 01:36:37;;;;;;;;;29.00;20.75;;;;;17.76;64.83;102488.50;4920321;28;45555;-81
2021/09/01 01:39:03;;;;;;;;;25.75;23.00;;;;;17.73;65.13;102470.88;4922776;28;45417;-81
2021/09/01 01:41:28;;;;;;;;;25.25;24.00;;;;;17.76;65.23;102488.50;4886559;29;48392;-81
2021/09/01 01:43:53;;;;;;;;;26.00;24.00;;;;;17.81;64.73;102477.69;4916411;28;45440;-81
2021/09/01 01:46:18;;;;;;;;;27.25;24.00;;;;;17.81;65.38;102485.66;4922371;28;45229;-81
2021/09/01 01:48:44;;;;;;;;;29.00;26.25;;;;;17.76;65.03;102493.81;4921099;28;45349;-81
2021/09/01 01:51:09;;;;;;;;;30.00;25.25;;;;;17.72;64.75;102487.75;4922190;28;45539;-81
2021/09/01 01:53:34;;;;;;;;;29.00;23.75;;;;;17.71;65.00;102493.09;4923401;28;45250;-82
2021/09/01 01:56:00;;;;;;;;;26.50;22.25;;;;;17.71;65.26;102490.44;4922243;28;45385;-87
2021/09/01 01:58:25;;;;;;;;;29.25;23.25;;;;;17.62;65.37;102481.91;4921929;28;45255;-81
2021/09/01 02:00:51;;;;;;;;;26.75;24.50;;;;;17.64;64.85;102487.16;4903993;28;47274;-84
2021/09/01 02:03:18;;;;;;;;;28.50;23.75;;;;;17.59;65.37;102481.13;4921855;28;45454;-81
2021/09/01 02:05:43;;;;;;;;;28.00;25.75;;;;;17.56;65.48;102484.75;4921438;28;45453;-80
2021/09/01 02:08:09;;;;;;;;;29.75;26.75;;;;;17.55;65.54;102485.69;4923007;28;45528;-80
2021/09/01 02:10:34;;;;;;;;;30.25;25.25;;;;;17.51;65.49;102481.38;4922849;28;45320;-80
2021/09/01 02:13:00;;;;;;;;;30.50;24.25;;;;;17.52;65.95;102497.31;4921956;28;45346;-85
2021/09/01 02:15:26;;;;;;;;;32.25;24.25;;;;;17.50;65.51;102501.81;4922247;28;45278;-84
2021/09/01 02:17:52;;;;;;;;;25.75;21.50;;;;;17.48;65.53;102495.66;4922315;28;45476;-84
2021/09/01 02:20:18;;;;;;;;;29.50;24.00;;;;;17.47;65.83;102499.25;4920862;28;46035;-83
2021/09/01 02:22:44;;;;;;;;;30.25;27.50;;;;;17.48;65.41;102502.78;4922486;28;45691;-81
2021/09/01 02:25:12;;;;;;;;;27.25;26.75;;;;;17.48;65.57;102510.75;4921143;28;45417;-81
2021/09/01 02:27:38;;;;;;;;;27.00;22.50;;;;;17.43;66.00;102510.91;4918912;28;45449;-82
2021/09/01 02:30:05;;;;;;;;;28.50;24.00;;;;;17.41;66.18;102505.63;4922535;28;46447;-82
2021/09/01 02:32:31;;;;;;;;;27.75;24.00;;;;;17.43;65.95;102510.91;4921798;28;45413;-81
2021/09/01 02:34:56;;;;;;;;;27.25;23.75;;;;;17.38;65.63;102499.56;4920589;28;45425;-81
2021/09/01 02:37:22;;;;;;;;;32.75;28.00;;;;;17.42;66.10;102511.81;4922697;28;45368;-82
2021/09/01 02:39:47;;;;;;;;;27.00;24.50;;;;;17.35;65.96;102500.53;4921477;28;46352;-81
2021/09/01 02:42:12;;;;;;;;;32.75;26.75;;;;;17.35;65.83;102500.53;4922485;28;45336;-81
2021/09/01 02:44:38;;;;;;;;;26.75;25.00;;;;;17.38;65.94;102503.09;4921471;28;45441;-81
2021/09/01 02:47:04;;;;;;;;;27.75;23.50;;;;;17.35;66.16;102511.16;4920366;28;45463;-83
2021/09/01 02:49:29;;;;;;;;;28.25;22.50;;;;;17.31;66.43;102501.53;4920002;28;45538;-83
2021/09/01 02:51:54;;;;;;;;;32.50;29.75;;;;;17.33;66.76;102502.38;4921629;28;45160;-83
2021/09/01 02:54:20;;;;;;;;;31.75;28.75;;;;;17.28;66.06;102491.91;4925087;28;45439;-83
2021/09/01 02:56:46;;;;;;;;;26.75;23.75;;;;;17.28;66.46;102499.00;4920701;28;45410;-78
2021/09/01 02:59:11;;;;;;;;;30.00;27.25;;;;;17.28;66.28;102497.22;4922268;28;46268;-78
2021/09/01 03:01:37;;;;;;;;;26.75;25.50;;;;;17.32;66.45;102516.56;4921099;28;45333;-78
2021/09/01 03:04:02;;;;;;;;;28.75;27.00;;;;;17.29;66.36;102512.22;4922343;28;45351;-78
2021/09/01 03:06:28;;;;;;;;;33.50;29.25;;;;;17.31;66.67;102507.72;4923100;28;45574;-81
2021/09/01 03:08:53;;;;;;;;;29.75;28.25;;;;;17.28;66.66;102499.00;4920079;28;45520;-81
2021/09/01 03:11:19;;;;;;;;;33.00;30.50;;;;;17.31;66.16;102499.75;4921356;28;45318;-81
2021/09/01 03:13:44;;;;;;;;;36.25;27.50;;;;;17.30;66.26;102498.03;4922325;28;45368;-81
2021/09/01 03:16:09;;;;;;;;;30.25;25.00;;;;;17.31;66.20;102497.09;4921176;28;45445;-82
2021/09/01 03:18:35;;;;;;;;;33.00;27.50;;;;;17.35;66.26;102491.69;4921711;28;45423;-82
2021/09/01 03:21:00;;;;;;;;;28.50;25.50;;;;;17.37;66.34;102497.81;4921234;28;45306;-82
2021/09/01 03:23:25;;;;;;;;;28.50;23.75;;;;;17.40;66.43;102503.91;4903653;28;45452;-82
2021/09/01 03:25:51;;;;;;;;;41.50;29.25;;;;;17.31;66.62;102494.44;4920996;28;45454;-82
2021/09/01 03:28:16;;;;;;;;;33.00;29.00;;;;;17.34;66.33;102496.13;4921681;28;45422;-82
2021/09/01 03:30:42;;;;;;;;;30.00;26.25;;;;;17.28;66.37;102488.38;4919978;28;45337;-81
2021/09/01 03:33:07;;;;;;;;;35.25;25.50;;;;;17.28;66.50;102493.69;4920067;28;45326;-81
2021/09/01 03:35:32;;;;;;;;;31.25;26.75;;;;;17.27;66.68;102492.81;4920631;28;45598;-83
2021/09/01 03:37:58;;;;;;;;;29.00;26.50;;;;;17.26;66.25;102493.72;4925337;28;46461;-82
2021/09/01 03:40:23;;;;;;;;;31.25;25.00;;;;;17.24;66.72;102482.28;4925507;28;45372;-81
2021/09/01 03:42:49;;;;;;;;;29.25;26.75;;;;;17.25;66.31;102491.13;4924433;28;45248;-82
2021/09/01 03:45:14;;;;;;;;;28.00;25.50;;;;;17.30;66.79;102497.16;4923967;28;45223;-80
2021/09/01 03:47:40;;;;;;;;;29.25;28.25;;;;;17.27;66.25;102503.44;4923852;28;46856;-80
2021/09/01 03:50:08;;;;;;;;;30.75;27.50;;;;;17.27;66.54;102499.91;4931211;28;45456;-82
2021/09/01 03:52:34;;;;;;;;;40.25;30.75;;;;;17.28;66.38;102499.88;4924513;28;45429;-81
2021/09/01 03:55:01;;;;;;;;;29.75;27.50;;;;;17.27;66.29;102507.88;4924276;28;45417;-81
2021/09/01 03:57:26;;;;;;;;;39.00;34.00;;;;;17.25;66.18;102497.31;4923485;28;46169;-81
2021/09/01 03:59:52;;;;;;;;;36.25;31.50;;;;;17.35;66.00;102510.28;4925117;28;45423;-81
2021/09/01 04:02:17;;;;;;;;;35.25;29.00;;;;;17.30;66.60;102500.69;4922683;28;45478;-79
2021/09/01 04:04:42;;;;;;;;;31.00;29.25;;;;;17.35;66.57;102505.84;4924202;28;46573;-85
2021/09/01 04:07:08;;;;;;;;;36.25;29.75;;;;;17.34;66.11;102492.59;4924604;28;45309;-84
2021/09/01 04:09:34;;;;;;;;;28.50;27.00;;;;;17.41;66.40;102504.75;4907630;28;45336;-90
2021/09/01 04:11:59;;;;;;;;;43.50;35.75;;;;;17.39;66.06;102496.84;4923880;28;45248;-90
2021/09/01 04:14:25;;;;;;;;;33.00;29.00;;;;;17.42;66.18;102495.88;4906501;28;47145;-88
2021/09/01 04:16:50;;;;;;;;;36.25;30.00;;;;;17.44;66.30;102502.00;4923734;28;45473;-88
2021/09/01 04:19:15;;;;;;;;;29.50;27.75;;;;;17.46;65.74;102497.50;4924813;28;45164;-89
2021/09/01 04:21:41;;;;;;;;;31.50;29.50;;;;;17.48;65.95;102519.56;4923747;28;45268;-88
2021/09/01 04:24:06;;;;;;;;;35.75;28.25;;;;;17.42;65.91;102502.06;4922566;28;45715;-88
2021/09/01 04:26:32;;;;;;;;;37.75;30.00;;;;;17.41;65.91;102500.31;4923040;28;47172;-89
2021/09/01 04:28:57;;;;;;;;;40.75;29.50;;;;;17.42;65.94;102501.19;4906572;28;45261;-85
2021/09/01 04:31:22;;;;;;;;;33.00;25.50;;;;;17.39;65.55;102495.97;4923903;28;45303;-85
2021/09/01 04:33:48;;;;;;;;;32.25;29.00;;;;;17.37;65.90;102498.69;4924674;28;45386;-83
2021/09/01 04:36:13;;;;;;;;;37.75;32.50;;;;;17.41;66.08;102512.72;4922217;28;45461;-85
2021/09/01 04:38:38;;;;;;;;;36.75;32.50;;;;;17.40;65.74;102514.53;4924664;28;45575;-87
2021/09/01 04:41:04;;;;;;;;;36.75;30.50;;;;;17.34;66.06;102514.72;4924670;28;45409;-88
2021/09/01 04:43:29;;;;;;;;;39.50;34.50;;;;;17.32;65.68;102522.75;4921511;28;45382;-86
2021/09/01 04:45:54;;;;;;;;;39.00;34.00;;;;;17.34;65.46;102520.03;4904157;28;46659;-83
2021/09/01 04:48:20;;;;;;;;;40.50;31.50;;;;;17.28;66.05;102518.47;4923995;28;45402;-80
2021/09/01 04:50:45;;;;;;;;;41.00;34.00;;;;;17.25;65.68;102523.88;4923146;28;45561;-80
2021/09/01 04:53:11;;;;;;;;;38.25;31.00;;;;;17.23;65.52;102522.19;4923900;28;45654;-84
2021/09/01 04:55:36;;;;;;;;;46.75;33.50;;;;;17.23;65.54;102524.84;4922262;28;46434;-80
2021/09/01 04:58:02;;;;;;;;;34.50;30.50;;;;;17.25;65.74;102537.19;4906842;28;45355;-81
2021/09/01 05:00:27;;;;;;;;;29.50;28.75;;;;;17.19;65.58;102524.06;4906204;28;45499;-84
2021/09/01 05:02:52;;;;;;;;;31.25;29.50;;;;;17.21;65.52;102532.88;4928145;28;45440;-78
2021/09/01 05:05:18;;;;;;;;;31.75;27.25;;;;;17.19;65.52;102526.72;4923800;28;46295;-78
2021/09/01 05:07:44;;;;;;;;;30.25;28.75;;;;;17.18;65.64;102514.38;4921498;28;45440;-79
2021/09/01 05:10:10;;;;;;;;;28.50;27.50;;;;;17.19;65.83;102514.31;4924684;28;45169;-79
2021/09/01 05:12:35;;;;;;;;;26.75;25.00;;;;;17.21;65.86;102515.13;4931542;28;45409;-78
2021/09/01 05:15:01;;;;;;;;;33.25;31.25;;;;;17.22;66.19;102529.28;4923049;28;45262;-79
2021/09/01 05:17:26;;;;;;;;;36.00;30.25;;;;;17.17;65.97;102518.81;4924677;28;45794;-78
2021/09/01 05:19:52;;;;;;;;;28.75;24.75;;;;;17.15;66.07;102515.34;4923058;28;45526;-78
2021/09/01 05:22:19;;;;;;;;;28.50;24.00;;;;;17.17;66.18;102518.81;4922557;28;45389;-78
2021/09/01 05:25:07;;;;;;;;;36.75;32.50;;;;;17.23;65.96;102528.38;4922968;28;45465;-78
2021/09/01 05:27:35;;;;;;;;;37.75;31.75;;;;;17.20;65.67;102523.16;4922161;28;45413;-78
2021/09/01 05:30:05;;;;;;;;;43.00;32.00;;;;;17.19;66.27;102527.59;4923061;28;45224;-78
2021/09/01 05:32:31;;;;;;;;;39.75;31.75;;;;;17.20;66.14;102526.69;4922630;28;45694;-78
2021/09/01 05:34:59;;;;;;;;;33.50;31.25;;;;;17.26;66.25;102536.22;4922855;28;45477;-78
2021/09/01 05:37:25;;;;;;;;;39.25;32.00;;;;;17.24;65.91;102531.88;4922818;28;45172;-78
2021/09/01 05:39:53;;;;;;;;;38.00;32.25;;;;;17.25;66.14;102530.97;4922580;28;45250;-79
2021/09/01 05:42:27;;;;;;;;;39.75;32.50;;;;;17.30;65.88;102539.69;4922210;28;45456;-79
2021/09/01 05:44:55;;;;;;;;;37.00;30.50;;;;;17.28;65.54;102545.06;4922637;28;46464;-79
2021/09/01 05:47:21;;;;;;;;;39.00;31.50;;;;;17.24;65.66;102547.84;4922121;28;45789;-77
2021/09/01 05:49:49;;;;;;;;;33.75;32.00;;;;;17.20;65.88;102549.75;4925443;28;45379;-77
2021/09/01 05:52:16;;;;;;;;;41.00;32.50;;;;;17.20;65.96;102552.41;4919070;28;45271;-77
2021/09/01 05:54:44;;;;;;;;;39.50;32.00;;;;;17.25;65.89;102541.63;4920798;28;46291;-77
2021/09/01 05:57:15;;;;;;;;;36.75;30.75;;;;;17.22;66.23;102537.25;4910890;28;45501;-78
2021/09/01 06:00:04;;;;;;;;;36.50;31.25;;;;;17.25;65.76;102542.50;4922951;28;45498;-78
2021/09/01 06:02:36;;;;;;;;;33.75;31.50;;;;;17.28;65.98;102552.16;4922289;28;46302;-78
2021/09/01 06:05:04;;;;;;;;;30.75;29.75;;;;;17.25;65.77;102546.94;4922523;28;45700;-78
2021/09/01 06:07:30;;;;;;;;;31.75;29.25;;;;;17.26;65.79;102540.72;4922980;28;45799;-81
2021/09/01 06:09:59;;;;;;;;;32.50;28.25;;;;;17.25;65.70;102545.16;4923126;28;45433;-77
2021/09/01 06:12:27;;;;;;;;;31.75;28.00;;;;;17.25;65.91;102542.50;4923027;28;45401;-77
2021/09/01 06:14:53;;;;;;;;;37.50;31.75;;;;;17.28;65.90;102545.06;4922536;28;45323;-77
2021/09/01 06:17:19;;;;;;;;;37.50;32.00;;;;;17.26;66.09;102541.56;4922683;28;45873;-77
2021/09/01 06:19:45;;;;;;;;;38.00;30.00;;;;;17.27;66.01;102530.00;4922977;28;45364;-77
2021/09/01 06:22:10;;;;;;;;;43.25;34.50;;;;;17.31;66.05;102534.31;4922505;28;45456;-80
2021/09/01 06:24:36;;;;;;;;;37.50;31.25;;;;;17.31;65.81;102530.78;4923724;28;45459;-77
2021/09/01 06:27:03;;;;;;;;;38.75;30.75;;;;;17.38;65.58;102528.78;4922187;28;45312;-77
2021/09/01 06:29:29;;;;;;;;;35.75;30.00;;;;;17.40;65.70;102541.13;4929527;28;45318;-77
2021/09/01 06:31:55;;;;;;;;;36.00;31.00;;;;;17.42;65.86;102533.09;4922009;28;45552;-77
2021/09/01 06:34:21;;;;;;;;;36.00;30.00;;;;;17.39;65.62;102515.44;4922801;28;45424;-77
2021/09/01 06:36:47;;;;;;;;;33.75;31.00;;;;;17.41;65.52;102520.69;4922528;28;45426;-77
2021/09/01 06:39:12;;;;;;;;;35.25;30.25;;;;;17.46;65.53;102524.06;4922466;28;45270;-77
2021/09/01 06:41:38;;;;;;;;;30.00;26.75;;;;;17.51;65.48;102524.78;4922245;28;45559;-77
2021/09/01 06:44:04;;;;;;;;;38.50;29.75;;;;;17.54;65.18;102530.00;4922148;28;45639;-77
2021/09/01 06:46:30;;;;;;;;;34.25;30.50;;;;;17.59;64.94;102524.53;4921626;28;45512;-77
2021/09/01 06:48:55;;;;;;;;;34.75;29.50;;;;;17.60;65.40;102520.97;4922643;28;45469;-77
2021/09/01 06:51:21;;;;;;;;;35.50;28.50;;;;;17.66;65.13;102531.38;4924978;28;45414;-77
2021/09/01 06:53:47;;;;;;;;;38.00;31.50;;;;;17.67;64.87;102526.94;4922000;28;45486;-77
2021/09/01 06:56:12;;;;;;;;;28.50;22.00;;;;;17.69;64.94;102530.41;4921701;28;45357;-77
2021/09/01 06:58:37;;;;;;;;;40.75;33.25;;;;;17.77;64.85;102536.34;4922596;28;45418;-77
2021/09/01 07:01:03;;;;;;;;;38.50;33.00;;;;;17.77;65.01;102535.47;4921870;28;45848;-77
2021/09/01 07:03:28;;;;;;;;;39.00;32.00;;;;;17.82;64.38;102533.50;4921816;28;46473;-77
2021/09/01 07:05:54;;;;;;;;;32.75;30.00;;;;;17.86;64.44;102531.59;4922194;28;45237;-77
2021/09/01 07:08:22;;;;;;;;;38.25;28.50;;;;;17.90;64.90;102532.38;4922058;28;45258;-77
2021/09/01 07:10:47;;;;;;;;;36.75;31.50;;;;;17.93;64.64;102533.09;4922454;28;45370;-77
2021/09/01 07:13:13;;;;;;;;;31.50;27.75;;;;;18.00;64.63;102531.97;4921486;28;46138;-77
2021/09/01 07:15:40;;;;;;;;;33.25;26.00;;;;;18.00;64.38;102518.66;4922016;28;45323;-77
2021/09/01 07:18:05;;;;;;;;;29.50;26.75;;;;;18.04;64.01;102524.75;4922041;28;45349;-78
2021/09/01 07:20:30;;;;;;;;;31.25;26.50;;;;;18.07;64.45;102524.66;4921942;28;45309;-77
2021/09/01 07:22:56;;;;;;;;;31.50;28.25;;;;;18.06;64.28;102517.59;4922201;28;46025;-77
2021/09/01 07:25:22;;;;;;;;;27.75;23.75;;;;;18.09;64.35;102513.94;4921502;28;45549;-77
2021/09/01 07:27:47;;;;;;;;;28.50;26.00;;;;;18.09;64.08;102520.13;4921667;28;45475;-77
2021/09/01 07:30:13;;;;;;;;;33.50;28.75;;;;;18.10;63.90;102513.88;4921748;28;45321;-78
2021/09/01 07:32:38;;;;;;;;;34.25;29.50;;;;;18.14;63.90;102517.31;4921809;28;45998;-79
2021/09/01 07:35:04;;;;;;;;;27.50;26.25;;;;;18.09;63.77;102514.81;4904386;28;45371;-78
2021/09/01 07:37:29;;;;;;;;;31.50;29.00;;;;;18.13;64.50;102512.91;4921455;28;45450;-79
2021/09/01 07:39:55;;;;;;;;;34.00;29.75;;;;;18.16;64.08;102520.78;4921536;28;45233;-79
2021/09/01 10:20:56;;;;;;;;;19.00;18.33;;;;;19.95;59.01;102500.31;5994477;23;46435;31
2021/09/01 10:23:42;;;;;;;;;23.75;17.75;;;;;19.94;59.32;102487.06;4848138;29;45677;-78
2021/09/01 10:26:22;;;;;;;;;19.25;16.75;;;;;19.96;59.54;102491.38;4836763;29;46332;-78
2021/09/01 10:28:47;;;;;;;;;24.00;19.00;;;;;19.98;59.19;102496.66;4846032;29;45425;-78
2021/09/01 10:31:15;;;;;;;;;17.75;16.75;;;;;20.07;59.12;102498.91;4850974;29;45543;-78
2021/09/01 10:33:47;;;;;;;;;23.75;20.75;;;;;20.06;58.82;102482.97;4847516;29;45498;-79
2021/09/01 10:36:25;;;;;;;;;18.75;18.25;;;;;20.16;58.88;102486.09;4846169;29;46424;-78
2021/09/01 10:38:51;;;;;;;;;16.75;14.50;;;;;20.21;58.85;102479.63;4849301;29;45253;-78
2021/09/01 10:41:30;;;;;;;;;18.00;15.25;;;;;20.22;58.77;102475.16;4847504;29;45344;-78
2021/09/01 10:44:11;;;;;;;;;19.75;19.00;;;;;20.36;58.84;102479.84;4846892;29;45394;-78
2021/09/01 10:46:51;;;;;;;;;19.25;17.50;;;;;20.42;58.25;102478.69;4846944;29;45311;-78
2021/09/01 10:49:21;;;;;;;;;20.00;18.50;;;;;20.42;58.32;102468.84;4847335;29;45322;-78
2021/09/01 10:51:48;;;;;;;;;24.25;18.50;;;;;20.44;58.28;102463.47;4860630;29;45274;-78
2021/09/01 10:54:34;;;;;;;;;19.50;18.25;;;;;20.51;57.71;102472.03;4846633;29;45454;-78
2021/09/01 10:57:03;;;;;;;;;17.25;15.50;;;;;20.51;57.90;102459.56;4846572;29;45551;-78
2021/09/01 10:59:31;;;;;;;;;21.00;18.75;;;;;20.53;57.61;102467.47;4847120;29;45564;-78
2021/09/01 11:02:08;;;;;;;;;17.25;16.50;;;;;20.61;57.96;102473.31;4846894;29;45290;-78
2021/09/01 11:04:33;;;;;;;;;22.50;17.25;;;;;20.59;57.45;102472.53;4838459;29;45192;-78
2021/09/01 11:07:04;;;;;;;;;25.75;17.25;;;;;20.62;57.47;102450.16;4846363;29;45485;-78
2021/09/01 11:09:29;;;;;;;;;18.00;16.00;;;;;20.66;57.59;102455.28;4843847;29;45486;-78
2021/09/01 11:11:57;;;;;;;;;14.50;14.50;;;;;20.75;57.19;102455.75;4846762;29;45484;-78
2021/09/01 11:14:30;;;;;;;;;20.50;18.50;;;;;20.75;57.19;102448.59;4846599;29;45412;-78
2021/09/01 11:16:57;;;;;;;;;16.50;15.00;;;;;20.82;57.22;102449.16;4845970;29;45451;-78
2021/09/01 11:19:23;;;;;;;;;21.75;16.00;;;;;20.88;57.04;102451.53;4845539;29;45662;-78
2021/09/01 11:21:49;;;;;;;;;17.25;15.75;;;;;20.96;56.69;102447.63;4851571;29;45384;-78
2021/09/01 11:24:17;;;;;;;;;27.00;22.75;;;;;21.02;56.96;102437.50;4864957;29;45500;-78
2021/09/01 11:26:44;;;;;;;;;24.25;22.50;;;;;21.08;56.38;102446.16;4864592;29;46511;-78
2021/09/01 11:29:11;;;;;;;;;20.50;20.25;;;;;21.07;56.09;102433.72;4865059;29;45424;-78
2021/09/01 11:31:44;;;;;;;;;23.25;19.75;;;;;21.11;56.04;102430.81;4867544;29;45285;-78
2021/09/01 11:34:12;;;;;;;;;24.50;20.00;;;;;21.20;55.49;102439.31;4864453;29;45262;-78
2021/09/01 11:36:41;;;;;;;;;22.50;18.50;;;;;21.21;55.87;102436.53;4864507;29;45258;-78
2021/09/01 11:39:07;;;;;;;;;20.50;17.50;;;;;21.26;55.38;102441.66;4864378;29;45822;-78
2021/09/01 11:41:32;;;;;;;;;18.00;15.00;;;;;21.33;55.47;102439.53;4864866;29;45419;-78
2021/09/01 11:44:05;;;;;;;;;17.25;16.25;;;;;21.33;55.60;102432.41;4864904;29;45372;-78
2021/09/01 16:08:35;;;;;;;;;9.75;9.75;;;;;23.02;47.66;102247.13;5802355;23;45866;-78
2021/09/01 16:11:01;;;;;;;;;10.50;10.25;;;;;23.00;48.10;102249.94;4876969;29;47009;-78
2021/09/01 16:13:27;;;;;;;;;9.00;9.00;;;;;23.00;48.09;102249.94;4880521;29;46252;-78
2021/09/01 16:15:54;;;;;;;;;14.00;10.25;;;;;22.94;47.84;102244.94;4883843;29;45308;-74
2021/09/01 16:18:58;;;;;;;;;15.50;13.00;;;;;22.91;47.41;102261.22;4879782;29;45543;-75
2021/09/01 16:21:34;;;;;;;;;15.00;12.50;;;;;22.80;47.49;102240.44;4884245;29;45420;-75
2021/09/01 16:24:02;;;;;;;;;15.00;12.75;;;;;22.79;48.87;102241.41;4866090;29;45422;-75
2021/09/01 16:26:32;;;;;;;;;12.00;11.00;;;;;22.70;47.89;102227.63;4878056;29;45242;-75
2021/09/01 16:29:01;;;;;;;;;12.00;11.00;;;;;22.73;48.53;102231.94;4882951;29;45574;-75
2021/09/01 16:31:27;;;;;;;;;14.25;12.75;;;;;22.70;49.05;102241.00;4881629;29;46366;-75
2021/09/01 16:33:57;;;;;;;;;13.00;10.00;;;;;22.60;49.12;102242.50;4881893;29;45368;-75
2021/09/01 16:36:24;;;;;;;;;13.25;12.50;;;;;22.54;49.37;102240.19;4877660;29;45439;-75
2021/09/01 16:38:51;;;;;;;;;17.25;12.75;;;;;22.46;48.67;102238.84;4882603;29;45515;-75
2021/09/01 16:41:37;;;;;;;;;12.50;11.50;;;;;22.46;49.40;102240.66;4881670;29;45625;-75
2021/09/01 16:44:04;;;;;;;;;14.00;13.25;;;;;22.43;49.17;102231.00;4878494;29;46112;-75
2021/09/01 16:46:30;;;;;;;;;15.50;12.75;;;;;22.40;49.43;102231.16;4886212;29;45325;-75
2021/09/01 16:48:57;;;;;;;;;9.25;9.25;;;;;22.36;49.11;102224.28;4886122;29;45308;-75
2021/09/01 16:51:30;;;;;;;;;13.50;12.50;;;;;22.38;49.04;102227.72;4885546;29;45466;-75
2021/09/01 16:54:00;;;;;;;;;12.25;11.50;;;;;22.31;49.39;102226.38;4884573;29;45403;-75
2021/09/01 16:56:28;;;;;;;;;15.25;14.00;;;;;22.28;49.30;102237.25;4886485;29;45423;-75
2021/09/01 16:59:11;;;;;;;;;15.00;13.00;;;;;22.21;49.40;102228.72;4892442;29;45382;-75
2021/09/01 17:01:37;;;;;;;;;10.50;6.50;;;;;22.18;49.62;102232.44;4888591;29;45439;-75
2021/09/01 17:04:06;;;;;;;;;15.25;12.75;;;;;22.16;49.61;102247.75;4886017;29;45245;-75
2021/09/01 17:06:38;;;;;;;;;18.25;14.75;;;;;22.13;49.81;102239.88;4885126;29;45302;-75
2021/09/01 17:09:06;;;;;;;;;18.50;15.75;;;;;22.13;50.58;102245.25;4885703;29;45228;-75
2021/09/01 17:11:32;;;;;;;;;12.75;12.00;;;;;22.12;50.70;102241.72;4885930;29;45755;-75
2021/09/01 17:13:57;;;;;;;;;15.75;15.00;;;;;22.10;50.47;102235.56;4885742;29;45384;-75
2021/09/01 17:16:23;;;;;;;;;21.75;14.25;;;;;22.05;50.15;102243.00;4885132;29;45358;-75
2021/09/01 17:18:53;;;;;;;;;14.75;14.25;;;;;22.00;50.16;102234.41;4879382;29;45341;-75
2021/09/01 17:21:28;;;;;;;;;16.50;15.00;;;;;21.96;50.51;102228.34;4884767;29;46392;-75
2021/09/01 17:23:54;;;;;;;;;15.50;12.75;;;;;21.92;50.85;102227.69;4875601;29;45194;-75
2021/09/01 17:26:20;;;;;;;;;19.00;16.25;;;;;21.91;50.88;102225.09;4869050;29;45311;-75
2021/09/01 17:28:54;;;;;;;;;17.00;13.00;;;;;21.88;50.62;102228.81;4885189;29;45579;-75
2021/09/01 17:31:25;;;;;;;;;14.50;12.50;;;;;21.84;50.73;102232.59;4885258;29;45344;-75
2021/09/01 17:33:52;;;;;;;;;12.25;10.50;;;;;21.79;50.90;102231.97;4874219;29;45333;-75
2021/09/01 17:36:18;;;;;;;;;11.50;11.50;;;;;21.72;51.52;102220.78;4885960;29;45296;-75
2021/09/01 17:38:50;;;;;;;;;15.00;12.50;;;;;21.66;51.05;102238.03;4884465;29;45342;-75
2021/09/01 17:41:21;;;;;;;;;18.25;15.50;;;;;21.62;51.96;102241.84;4875720;29;45689;-75
2021/09/01 17:43:50;;;;;;;;;17.25;15.75;;;;;21.61;52.14;102244.63;4885171;29;45719;-75
2021/09/01 17:46:16;;;;;;;;;17.25;17.00;;;;;21.55;52.12;102246.69;4885469;29;45439;-75
2021/09/01 17:48:50;;;;;;;;;15.25;15.25;;;;;21.52;51.92;102251.31;4884749;29;45730;-75
2021/09/01 17:51:16;;;;;;;;;14.25;13.75;;;;;21.46;52.18;102247.16;4868207;29;46354;-75
2021/09/01 17:53:42;;;;;;;;;15.25;14.50;;;;;21.45;52.34;102254.34;4883750;29;45239;-75
2021/09/01 17:56:09;;;;;;;;;15.25;13.50;;;;;21.42;52.30;102259.88;4885560;29;45816;-75
2021/09/01 17:58:35;;;;;;;;;16.75;14.25;;;;;21.36;52.21;102250.38;4876555;29;45462;-75
2021/09/01 18:01:02;;;;;;;;;18.00;16.50;;;;;21.30;52.69;102253.38;4880646;29;45826;-75
2021/09/01 18:03:28;;;;;;;;;19.25;18.00;;;;;21.27;52.35;102264.25;4885351;29;45656;-75
2021/09/01 18:05:53;;;;;;;;;17.50;16.25;;;;;21.21;52.68;102248.56;4884963;29;45458;-75
2021/09/01 18:08:20;;;;;;;;;14.75;13.50;;;;;21.17;52.68;102249.66;4882228;29;45747;-75
2021/09/01 18:10:46;;;;;;;;;19.00;15.25;;;;;21.13;52.96;102247.16;4884732;29;45364;-74